createdAt,value
2022-08-31T00:02:27.880Z,100925.22
2022-08-31T00:04:57.394Z,100927.38
2022-08-31T00:07:27.630Z,100922.16
2022-08-31T00:09:55.024Z,100915.50
2022-08-31T00:12:22.561Z,100903.75
2022-08-31T00:14:51.377Z,100913.97
2022-08-31T00:17:18.818Z,100914.94
2022-08-31T00:19:46.283Z,100916.28
2022-08-31T00:22:13.537Z,100919.06
2022-08-31T00:24:40.720Z,100921.78
2022-08-31T00:27:08.277Z,100923.06
2022-08-31T00:29:38.268Z,100914.19
2022-08-31T00:32:05.722Z,100926.69
2022-08-31T00:34:33.459Z,100933.13
2022-08-31T00:37:02.045Z,100933.69
2022-08-31T00:39:29.734Z,100937.94
2022-08-31T00:41:57.217Z,100935.38
2022-08-31T00:44:24.491Z,100927.00
2022-08-31T00:46:51.855Z,100933.44
2022-08-31T00:49:26.933Z,100934.56
2022-08-31T00:52:02.121Z,100936.31
2022-08-31T00:54:37.563Z,100934.13
2022-08-31T00:57:08.002Z,100942.16
2022-08-31T00:59:37.088Z,100936.00
2022-08-31T01:02:04.690Z,100941.59
2022-08-31T01:04:32.278Z,100935.91
2022-08-31T01:07:00.489Z,100936.53
2022-08-31T01:09:32.689Z,100936.03
2022-08-31T01:12:01.855Z,100936.41
2022-08-31T01:14:30.016Z,100936.28
2022-08-31T01:16:57.273Z,100936.50
2022-08-31T01:19:36.511Z,100940.25
2022-08-31T01:22:22.843Z,100936.44
2022-08-31T01:24:51.094Z,100931.94
2022-08-31T01:27:23.409Z,100934.94
2022-08-31T01:29:50.651Z,100938.09
2022-08-31T01:32:18.395Z,100932.13
2022-08-31T01:34:45.637Z,100929.97
2022-08-31T01:37:12.940Z,100935.09
2022-08-31T01:39:41.852Z,100927.16
2022-08-31T01:42:10.170Z,100935.16
2022-08-31T01:44:37.483Z,100929.03
2022-08-31T01:47:06.682Z,100926.50
2022-08-31T01:49:35.616Z,100932.75
2022-08-31T01:52:03.030Z,100932.19
2022-08-31T01:54:30.711Z,100938.44
2022-08-31T01:56:58.219Z,100939.03
2022-08-31T02:00:04.678Z,100941.31
2022-08-31T02:02:46.456Z,100941.72
2022-08-31T02:05:14.623Z,100941.31
2022-08-31T02:07:44.743Z,100942.59
2022-08-31T02:10:12.703Z,100942.59
2022-08-31T02:12:41.116Z,100942.44
2022-08-31T02:15:10.012Z,100930.25
2022-08-31T02:17:37.486Z,100937.50
2022-08-31T02:20:08.197Z,100933.34
2022-08-31T02:22:35.880Z,100941.19
2022-08-31T02:25:04.284Z,100935.91
2022-08-31T02:27:32.006Z,100944.16
2022-08-31T02:29:59.237Z,100938.19
2022-08-31T02:32:26.583Z,100935.47
2022-08-31T02:34:54.250Z,100936.50
2022-08-31T02:37:21.507Z,100943.19
2022-08-31T02:39:50.268Z,100942.75
2022-08-31T02:42:19.020Z,100938.06
2022-08-31T02:44:46.697Z,100933.38
2022-08-31T02:47:14.075Z,100946.16
2022-08-31T02:49:50.311Z,100941.19
2022-08-31T02:52:17.534Z,100935.09
2022-08-31T02:54:45.145Z,100929.53
2022-08-31T02:57:12.818Z,100938.06
2022-08-31T02:59:40.281Z,100934.22
2022-08-31T03:02:07.915Z,100921.88
2022-08-31T03:04:38.356Z,100928.97
2022-08-31T03:07:05.735Z,100924.00
2022-08-31T03:09:33.122Z,100926.72
2022-08-31T03:12:00.803Z,100931.38
2022-08-31T03:14:28.318Z,100929.09
2022-08-31T03:16:55.698Z,100928.25
2022-08-31T03:19:23.186Z,100930.25
2022-08-31T03:21:55.914Z,100933.53
2022-08-31T03:24:27.237Z,100946.44
2022-08-31T03:26:55.459Z,100943.28
2022-08-31T03:29:22.783Z,100941.38
2022-08-31T03:32:13.897Z,100948.47
2022-08-31T03:34:43.466Z,100939.09
2022-08-31T03:37:11.082Z,100946.75
2022-08-31T03:39:39.112Z,100947.13
2022-08-31T03:42:07.089Z,100956.88
2022-08-31T03:44:34.534Z,100957.13
2022-08-31T03:47:02.142Z,100967.44
2022-08-31T03:49:29.368Z,100954.91
2022-08-31T03:52:09.488Z,100966.63
2022-08-31T03:54:44.376Z,100963.81
2022-08-31T03:57:12.862Z,100957.84
2022-08-31T03:59:40.178Z,100960.34
2022-08-31T04:02:20.087Z,100961.03
2022-08-31T04:05:07.712Z,100960.22
2022-08-31T04:07:54.906Z,100963.66
2022-08-31T04:10:42.892Z,100961.94
2022-08-31T04:13:30.385Z,100964.22
2022-08-31T04:16:15.500Z,100967.75
2022-08-31T04:19:07.860Z,100962.31
2022-08-31T04:21:44.226Z,100967.25
2022-08-31T04:24:13.390Z,100958.00
2022-08-31T04:26:41.390Z,100963.53
2022-08-31T04:29:13.466Z,100973.91
2022-08-31T04:31:42.332Z,100984.09
2022-08-31T04:34:09.623Z,100968.91
2022-08-31T04:36:37.642Z,100987.63
2022-08-31T04:39:06.532Z,100977.91
2022-08-31T04:41:38.463Z,100973.19
2022-08-31T04:44:07.991Z,100978.19
2022-08-31T04:46:37.372Z,100980.06
2022-08-31T04:49:05.340Z,100989.06
2022-08-31T04:51:35.588Z,100980.03
2022-08-31T04:54:06.502Z,100979.28
2022-08-31T04:56:37.310Z,100986.75
2022-08-31T04:59:08.019Z,100984.16
2022-08-31T05:01:45.341Z,100984.69
2022-08-31T05:04:31.997Z,100981.84
2022-08-31T05:06:59.819Z,100975.97
2022-08-31T05:09:29.497Z,100976.38
2022-08-31T05:11:57.199Z,100974.19
2022-08-31T05:14:25.992Z,100977.38
2022-08-31T05:17:01.424Z,100970.22
2022-08-31T05:19:32.136Z,100983.47
2022-08-31T05:21:59.715Z,100985.50
2022-08-31T05:24:27.654Z,100985.66
2022-08-31T05:26:56.215Z,100990.72
2022-08-31T05:29:26.206Z,100978.28
2022-08-31T05:32:25.976Z,100996.66
2022-08-31T05:34:55.463Z,100992.53
2022-08-31T05:37:24.377Z,100993.88
2022-08-31T05:39:52.348Z,100986.88
2022-08-31T05:42:19.983Z,100994.53
2022-08-31T05:44:47.956Z,101000.03
2022-08-31T05:47:16.607Z,100996.91
2022-08-31T05:49:44.543Z,100999.59
2022-08-31T05:52:15.710Z,100995.44
2022-08-31T05:54:44.159Z,100991.56
2022-08-31T05:57:11.720Z,101005.31
2022-08-31T05:59:39.883Z,101000.03
2022-08-31T06:02:11.413Z,100997.81
2022-08-31T06:04:40.089Z,101001.72
2022-08-31T06:07:08.182Z,101008.81
2022-08-31T06:09:41.875Z,101019.66
2022-08-31T06:12:10.810Z,101011.53
2022-08-31T06:14:44.247Z,101012.72
2022-08-31T06:17:13.301Z,101004.16
2022-08-31T06:19:40.530Z,101005.66
2022-08-31T06:22:07.732Z,101013.72
2022-08-31T06:24:37.093Z,101022.34
2022-08-31T06:27:06.205Z,101019.50
2022-08-31T06:29:36.457Z,101029.09
2022-08-31T06:32:08.284Z,101038.41
2022-08-31T06:34:39.781Z,101024.38
2022-08-31T06:37:10.840Z,101044.53
2022-08-31T06:40:14.283Z,101040.25
2022-08-31T06:43:07.977Z,101030.03
2022-08-31T06:46:08.031Z,101045.19
2022-08-31T06:49:14.635Z,101046.47
2022-08-31T06:51:42.817Z,101045.56
2022-08-31T06:54:29.035Z,101035.75
2022-08-31T06:57:16.301Z,101048.91
2022-08-31T07:00:02.646Z,101046.41
2022-08-31T07:02:41.831Z,101036.25
2022-08-31T07:05:13.730Z,101044.72
2022-08-31T07:07:43.969Z,101040.34
2022-08-31T07:10:11.384Z,101048.69
2022-08-31T07:12:38.691Z,101051.47
2022-08-31T07:15:06.617Z,101051.09
2022-08-31T07:17:33.917Z,101051.19
2022-08-31T07:20:03.876Z,101038.78
2022-08-31T07:22:31.380Z,101050.22
2022-08-31T07:25:26.640Z,101045.28
2022-08-31T07:27:55.668Z,101038.72
2022-08-31T07:30:23.595Z,101042.34
2022-08-31T07:32:51.360Z,101049.44
2022-08-31T07:35:24.824Z,101051.41
2022-08-31T07:38:36.878Z,101037.91
2022-08-31T07:41:28.486Z,101051.78
2022-08-31T07:43:59.634Z,101057.50
2022-08-31T07:46:32.125Z,101057.66
2022-08-31T07:49:02.348Z,101077.53
2022-08-31T07:51:53.501Z,101071.78
2022-08-31T07:54:39.944Z,101085.06
2022-08-31T07:57:30.240Z,101069.03
2022-08-31T08:00:06.973Z,101082.72
2022-08-31T08:02:50.785Z,101086.03
2022-08-31T08:05:29.012Z,101081.97
2022-08-31T08:08:16.980Z,101093.56
2022-08-31T08:10:56.414Z,101090.97
2022-08-31T08:13:43.337Z,101085.88
2022-08-31T08:16:21.939Z,101098.81
2022-08-31T08:19:15.960Z,101098.91
2022-08-31T08:21:46.198Z,101104.81
2022-08-31T08:24:15.997Z,101102.66
2022-08-31T08:27:02.727Z,101105.94
2022-08-31T08:29:43.414Z,101104.66
2022-08-31T08:32:17.606Z,101092.59
2022-08-31T08:34:46.100Z,101106.75
2022-08-31T08:37:14.453Z,101110.88
2022-08-31T08:39:43.207Z,101106.75
2022-08-31T08:42:20.557Z,101106.84
2022-08-31T08:44:48.542Z,101112.22
2022-08-31T08:47:24.068Z,101110.00
2022-08-31T08:50:03.860Z,101115.25
2022-08-31T08:52:41.515Z,101118.22
2022-08-31T08:55:17.286Z,101109.69
2022-08-31T08:57:49.662Z,101114.91
2022-08-31T09:00:21.251Z,101082.31
2022-08-31T09:03:07.321Z,101105.88
2022-08-31T09:06:09.832Z,101111.28
2022-08-31T09:08:58.957Z,101113.81
2022-08-31T09:11:50.166Z,101116.28
2022-08-31T09:14:48.368Z,101121.41
2022-08-31T09:17:29.101Z,101126.00
2022-08-31T09:20:00.425Z,101131.34
2022-08-31T09:22:33.353Z,101124.50
2022-08-31T09:25:03.676Z,101118.91
2022-08-31T09:28:07.654Z,101129.75
2022-08-31T09:30:40.514Z,101129.47
2022-08-31T09:33:20.522Z,101115.19
2022-08-31T09:35:56.667Z,101126.06
2022-08-31T09:38:40.394Z,101128.97
2022-08-31T09:41:31.571Z,101124.38
2022-08-31T09:44:25.209Z,101108.53
2022-08-31T09:46:57.550Z,101103.50
2022-08-31T09:49:32.517Z,101119.03
2022-08-31T09:52:54.937Z,101134.56
2022-08-31T09:55:25.560Z,101112.66
2022-08-31T09:58:04.419Z,101122.78
2022-08-31T10:00:41.426Z,101118.81
2022-08-31T10:03:26.074Z,101116.34
2022-08-31T10:05:55.032Z,101129.28
2022-08-31T10:08:58.232Z,101119.72
2022-08-31T10:11:32.753Z,101110.66
2022-08-31T10:14:22.780Z,101117.81
2022-08-31T10:17:02.728Z,101127.59
2022-08-31T10:19:53.080Z,101120.59
2022-08-31T10:22:32.055Z,101120.50
2022-08-31T10:25:17.408Z,101117.38
2022-08-31T10:27:49.869Z,101112.53
2022-08-31T10:30:25.136Z,101109.13
2022-08-31T10:34:01.430Z,101109.13
2022-08-31T10:36:36.437Z,101100.69
2022-08-31T10:39:09.605Z,101103.84
2022-08-31T10:41:44.234Z,101117.81
2022-08-31T10:44:26.896Z,101118.50
2022-08-31T10:46:58.430Z,101106.97
2022-08-31T10:49:26.915Z,101106.16
2022-08-31T10:52:03.376Z,101106.19
2022-08-31T10:54:32.278Z,101110.34
2022-08-31T10:57:31.553Z,101105.31
2022-08-31T11:00:34.988Z,101114.63
2022-08-31T11:03:32.975Z,101111.03
2022-08-31T11:06:30.149Z,101109.00
2022-08-31T11:09:23.320Z,101100.97
2022-08-31T11:12:07.299Z,101105.56
2022-08-31T11:14:49.946Z,101101.50
2022-08-31T11:17:30.026Z,101103.00
2022-08-31T11:20:13.810Z,101106.28
2022-08-31T11:23:10.530Z,101104.03
2022-08-31T11:26:17.713Z,101087.38
2022-08-31T11:28:56.470Z,101097.13
2022-08-31T11:31:27.479Z,101104.69
2022-08-31T11:34:15.925Z,101099.13
2022-08-31T11:36:55.166Z,101102.00
2022-08-31T11:39:44.593Z,101107.41
2022-08-31T11:42:26.881Z,101100.19
2022-08-31T11:45:12.907Z,101102.75
2022-08-31T11:47:43.418Z,101091.25
2022-08-31T11:50:32.867Z,101090.94
2022-08-31T11:53:17.706Z,101097.03
2022-08-31T11:55:48.016Z,101090.78
2022-08-31T11:58:27.333Z,101077.88
2022-08-31T12:00:58.728Z,101099.34
2022-08-31T12:03:44.552Z,101097.97
2022-08-31T12:06:37.338Z,101084.50
2022-08-31T12:09:40.199Z,101088.44
2022-08-31T12:12:44.017Z,101091.28
2022-08-31T12:15:25.644Z,101072.88
2022-08-31T12:17:55.490Z,101084.69
2022-08-31T12:21:19.372Z,101078.78
2022-08-31T12:24:05.366Z,101074.66
2022-08-31T12:27:07.956Z,101065.84
2022-08-31T12:29:39.872Z,101067.03
2022-08-31T12:32:11.151Z,101064.28
2022-08-31T12:34:56.316Z,101064.97
2022-08-31T12:37:29.826Z,101062.09
2022-08-31T12:40:14.447Z,101064.13
2022-08-31T12:42:53.154Z,101052.34
2022-08-31T12:45:32.653Z,101055.94
2022-08-31T12:48:08.718Z,101055.28
2022-08-31T12:50:52.997Z,101057.63
2022-08-31T12:53:44.751Z,101059.59
2022-08-31T12:57:01.550Z,101037.94
2022-08-31T13:00:00.081Z,101047.19
2022-08-31T13:02:32.251Z,101039.69
2022-08-31T13:05:00.722Z,101049.72
2022-08-31T13:07:34.033Z,101044.81
2022-08-31T13:10:11.433Z,101050.44
2022-08-31T13:12:39.626Z,101058.78
2022-08-31T13:15:24.896Z,101047.78
2022-08-31T13:17:53.688Z,101064.78
2022-08-31T13:20:25.660Z,101050.84
2022-08-31T13:22:59.789Z,101049.81
2022-08-31T13:25:51.763Z,101047.25
2022-08-31T13:28:26.270Z,101058.50
2022-08-31T13:31:09.292Z,101043.44
2022-08-31T13:33:40.576Z,101045.25
2022-08-31T13:36:13.273Z,101054.31
2022-08-31T13:38:50.462Z,101039.19
2022-08-31T13:41:29.974Z,101048.13
2022-08-31T13:44:02.627Z,101044.22
2022-08-31T13:46:43.431Z,101038.22
2022-08-31T13:49:41.920Z,101037.00
2022-08-31T13:52:25.407Z,101033.94
2022-08-31T13:55:04.185Z,101040.94
2022-08-31T13:57:35.839Z,101040.84
2022-08-31T14:00:25.344Z,101047.31
2022-08-31T14:02:54.037Z,101032.75
2022-08-31T14:05:38.164Z,101041.28
2022-08-31T14:08:08.357Z,101032.09
2022-08-31T14:10:40.678Z,101041.44
2022-08-31T14:13:20.131Z,101028.94
2022-08-31T14:16:03.093Z,101033.47
2022-08-31T14:18:40.315Z,101030.38
2022-08-31T14:21:20.739Z,101034.56
2022-08-31T14:24:00.540Z,101030.16
2022-08-31T14:26:31.049Z,101021.00
2022-08-31T14:29:01.698Z,101038.16
2022-08-31T14:31:49.241Z,101036.38
2022-08-31T14:34:34.042Z,101036.97
2022-08-31T14:37:07.229Z,101037.50
2022-08-31T14:39:36.974Z,101035.00
2022-08-31T14:42:08.121Z,101028.94
2022-08-31T14:44:41.822Z,101018.44
2022-08-31T14:47:12.442Z,101027.66
2022-08-31T14:49:45.598Z,101026.56
2022-08-31T14:52:13.210Z,101022.13
2022-08-31T14:54:41.154Z,101023.50
2022-08-31T14:57:15.814Z,101017.47
2022-08-31T14:59:44.854Z,101020.59
2022-08-31T15:02:21.292Z,101028.59
2022-08-31T15:04:49.003Z,101030.63
2022-08-31T15:07:17.349Z,101029.00
2022-08-31T15:09:47.897Z,101034.19
2022-08-31T15:12:18.144Z,101027.31
2022-08-31T15:14:47.359Z,101054.78
2022-08-31T15:17:18.964Z,101056.28
2022-08-31T15:19:50.525Z,101051.59
2022-08-31T15:22:18.318Z,101049.94
2022-08-31T15:24:45.718Z,101048.56
2022-08-31T15:27:15.534Z,101072.41
2022-08-31T15:29:45.628Z,101056.63
2022-08-31T15:32:19.471Z,101054.72
2022-08-31T15:34:58.173Z,101060.50
2022-08-31T15:37:31.797Z,101056.94
2022-08-31T15:40:05.307Z,101051.19
2022-08-31T15:42:38.376Z,101066.97
2022-08-31T15:45:06.988Z,101067.28
2022-08-31T15:47:56.526Z,101065.94
2022-08-31T15:50:31.398Z,101076.09
2022-08-31T15:53:08.199Z,101065.50
2022-08-31T15:55:40.894Z,101067.28
2022-08-31T15:58:09.534Z,101056.91
2022-08-31T16:00:38.405Z,101059.97
2022-08-31T16:03:06.297Z,101050.44
2022-08-31T16:05:39.497Z,101045.63
2022-08-31T16:08:11.084Z,101042.94
2022-08-31T16:10:45.508Z,101031.84
2022-08-31T16:13:15.874Z,101035.03
2022-08-31T16:15:51.101Z,101029.91
2022-08-31T16:18:22.148Z,101035.78
2022-08-31T16:20:50.617Z,101026.19
2022-08-31T16:23:18.406Z,101027.34
2022-08-31T16:25:49.141Z,101021.53
2022-08-31T16:28:19.715Z,101022.47
2022-08-31T16:30:47.656Z,101023.91
2022-08-31T16:33:14.979Z,101016.53
2022-08-31T16:35:44.699Z,101016.41
2022-08-31T16:38:12.806Z,101005.56
2022-08-31T16:40:41.968Z,101009.28
2022-08-31T16:43:09.898Z,101007.75
2022-08-31T16:45:41.489Z,101005.84
2022-08-31T16:48:30.040Z,101014.31
2022-08-31T16:51:01.934Z,101015.00
2022-08-31T16:53:30.494Z,101019.72
2022-08-31T16:56:00.112Z,101028.28
2022-08-31T16:58:50.610Z,101038.53
2022-08-31T17:01:25.605Z,101040.78
2022-08-31T17:04:03.383Z,101032.31
2022-08-31T17:06:35.782Z,101043.00
2022-08-31T17:09:06.851Z,101039.56
2022-08-31T17:11:45.093Z,101025.66
2022-08-31T17:14:15.776Z,101032.31
2022-08-31T17:16:43.664Z,101037.47
2022-08-31T17:19:13.695Z,101043.63
2022-08-31T17:21:52.196Z,101040.81
2022-08-31T17:24:30.433Z,101033.53
2022-08-31T17:27:01.365Z,101035.81
2022-08-31T17:29:37.770Z,101039.47
2022-08-31T17:32:13.823Z,101034.72
2022-08-31T17:34:43.152Z,101032.16
2022-08-31T17:37:15.398Z,101034.19
2022-08-31T17:39:45.415Z,101032.31
2022-08-31T17:42:17.097Z,101040.13
2022-08-31T17:44:48.066Z,101040.75
2022-08-31T17:47:15.595Z,101035.97
2022-08-31T17:49:46.559Z,101035.13
2022-08-31T17:52:14.598Z,101033.09
2022-08-31T17:54:43.410Z,101032.88
2022-08-31T17:57:13.887Z,101033.69
2022-08-31T17:59:46.599Z,101033.13
2022-08-31T18:02:17.722Z,101031.34
2022-08-31T18:04:45.385Z,101035.31
2022-08-31T18:07:12.759Z,101039.44
2022-08-31T18:09:42.872Z,101038.38
2022-08-31T18:12:10.348Z,101040.72
2022-08-31T18:14:39.031Z,101046.69
2022-08-31T18:17:10.286Z,101049.38
2022-08-31T18:19:38.328Z,101046.44
2022-08-31T18:22:07.039Z,101053.34
2022-08-31T18:24:37.000Z,101040.56
2022-08-31T18:27:08.019Z,101044.53
2022-08-31T18:29:37.222Z,101043.22
2022-08-31T18:32:07.411Z,101053.66
2022-08-31T18:34:39.773Z,101049.56
2022-08-31T18:37:08.135Z,101058.41
2022-08-31T18:39:59.953Z,101052.22
2022-08-31T18:42:47.577Z,101046.19
2022-08-31T18:45:21.456Z,101051.97
2022-08-31T18:48:23.135Z,101052.47
2022-08-31T18:50:44.587Z,101052.91
2022-08-31T18:53:15.048Z,101053.25
2022-08-31T18:55:44.229Z,101056.38
2022-08-31T18:58:12.199Z,101051.13
2022-08-31T19:00:40.500Z,101061.34
2022-08-31T19:03:08.205Z,101065.53
2022-08-31T19:05:39.149Z,101052.81
2022-08-31T19:08:06.419Z,101047.13
2022-08-31T19:10:34.855Z,101052.72
2022-08-31T19:13:07.351Z,101048.25
2022-08-31T19:15:39.838Z,101058.13
2022-08-31T19:18:08.659Z,101048.34
2022-08-31T19:20:36.219Z,101059.84
2022-08-31T19:23:03.782Z,101060.16
2022-08-31T19:25:32.093Z,101051.00
2022-08-31T19:28:06.606Z,101065.22
2022-08-31T19:30:35.150Z,101058.06
2022-08-31T19:33:08.506Z,101058.97
2022-08-31T19:35:38.570Z,101068.25
2022-08-31T19:38:06.381Z,101061.75
2022-08-31T19:40:40.181Z,101061.06
2022-08-31T19:45:55.030Z,101068.59
2022-08-31T19:48:23.887Z,101055.38
2022-08-31T19:50:52.344Z,101060.19
2022-08-31T19:53:21.535Z,101053.81
2022-08-31T19:55:51.486Z,101050.84
2022-08-31T19:58:26.632Z,101050.28
2022-08-31T20:01:00.573Z,101056.09
2022-08-31T20:03:31.300Z,101054.50
2022-08-31T20:05:59.993Z,101050.56
2022-08-31T20:08:27.259Z,101052.53
2022-08-31T20:10:54.570Z,101050.56
2022-08-31T20:13:24.249Z,101043.19
2022-08-31T20:15:53.033Z,101040.88
2022-08-31T20:18:20.929Z,101049.56
2022-08-31T20:20:50.922Z,101046.88
2022-08-31T20:23:21.360Z,101041.31
2022-08-31T20:25:51.198Z,101038.31
2022-08-31T20:28:26.932Z,101037.31
2022-08-31T20:30:55.359Z,101043.69
2022-08-31T20:33:22.917Z,101034.19
2022-08-31T20:35:50.161Z,101038.75
2022-08-31T20:38:18.958Z,101025.94
2022-08-31T20:40:52.282Z,101036.16
2022-08-31T20:43:21.313Z,101044.06
2022-08-31T20:45:49.165Z,101036.41
2022-08-31T20:48:35.218Z,101026.16
2022-08-31T20:51:16.227Z,101022.28
2022-08-31T20:53:44.514Z,101023.00
2022-08-31T20:56:16.915Z,101022.75
2022-08-31T20:58:48.478Z,101027.28
2022-08-31T21:01:16.199Z,101020.16
2022-08-31T21:03:43.488Z,101018.72
2022-08-31T21:06:13.096Z,101020.09
2022-08-31T21:08:42.645Z,101015.59
2022-08-31T21:11:15.203Z,101010.97
2022-08-31T21:13:43.873Z,101013.06
2022-08-31T21:16:11.506Z,101018.88
2022-08-31T21:18:40.515Z,101011.53
2022-08-31T21:21:14.603Z,101014.59
2022-08-31T21:23:42.365Z,101014.78
2022-08-31T21:26:17.152Z,101021.38
2022-08-31T21:28:46.380Z,101015.41
2022-08-31T21:31:18.384Z,101020.94
2022-08-31T21:33:58.237Z,101024.63
2022-08-31T21:36:26.814Z,101022.06
2022-08-31T21:38:56.093Z,101013.66
2022-08-31T21:41:26.771Z,101022.47
2022-08-31T21:43:55.899Z,101015.38
2022-08-31T21:46:28.383Z,101015.06
2022-08-31T21:48:58.304Z,101014.78
2022-08-31T21:51:29.025Z,101008.50
2022-08-31T21:54:02.545Z,101013.63
2022-08-31T21:56:32.549Z,101014.72
2022-08-31T21:59:00.888Z,101009.63
2022-08-31T22:01:29.426Z,101011.31
2022-08-31T22:03:59.301Z,101022.09
2022-08-31T22:06:31.145Z,101013.28
2022-08-31T22:09:13.482Z,101018.69
2022-08-31T22:11:45.714Z,101013.03
2022-08-31T22:14:16.440Z,101007.22
2022-08-31T22:16:46.633Z,101013.66
2022-08-31T22:19:18.433Z,101018.59
2022-08-31T22:21:48.415Z,101013.50
2022-08-31T22:24:27.679Z,101016.69
2022-08-31T22:26:58.158Z,101008.38
2022-08-31T22:29:28.988Z,101007.56
2022-08-31T22:32:00.880Z,101007.09
2022-08-31T22:34:28.075Z,101012.16
2022-08-31T22:36:56.579Z,101008.16
2022-08-31T22:39:28.649Z,101004.03
2022-08-31T22:41:57.533Z,100999.13
2022-08-31T22:44:28.442Z,100992.00
2022-08-31T22:46:59.361Z,101001.84
2022-08-31T22:49:27.203Z,101002.94
2022-08-31T22:51:54.998Z,100998.31
2022-08-31T22:54:23.278Z,100992.59
2022-08-31T22:56:51.906Z,100990.53
2022-08-31T22:59:26.181Z,100990.53
2022-08-31T23:01:57.133Z,100992.16
2022-08-31T23:04:26.389Z,100992.34
2022-08-31T23:06:56.202Z,100998.44
2022-08-31T23:09:27.896Z,100991.97
2022-08-31T23:11:56.378Z,100987.75
2022-08-31T23:14:23.966Z,100990.91
2022-08-31T23:16:59.276Z,100990.00
2022-08-31T23:19:36.990Z,100993.53
2022-08-31T23:22:09.444Z,100989.59
2022-08-31T23:24:38.732Z,100986.56
2022-08-31T23:27:09.314Z,100978.50
2022-08-31T23:29:40.640Z,100970.91
2022-08-31T23:32:13.463Z,100975.34
2022-08-31T23:34:41.824Z,100972.19
2022-08-31T23:37:11.223Z,100981.91
2022-08-31T23:39:43.954Z,100972.06
2022-08-31T23:42:14.029Z,100971.47
2022-08-31T23:44:43.706Z,100975.59
2022-08-31T23:47:13.906Z,100974.22
2022-08-31T23:49:43.911Z,100960.31
2022-08-31T23:52:13.101Z,100964.72
2022-08-31T23:54:40.507Z,100960.06
2022-08-31T23:57:31.191Z,100960.63
